sensor_id;sensor_type;location;lat;lon;timestamp;P1;durP1;ratioP1;P2;durP2;ratioP2
45328;SDS011;31063;48.356;10.896;2022-11-09T00:02:02;8.73;;;5.00;;
45328;SDS011;31063;48.356;10.896;2022-11-09T00:04:29;10.13;;;5.38;;
45328;SDS011;31063;48.356;10.896;2022-11-09T00:06:55;10.40;;;5.60;;
45328;SDS011;31063;48.356;10.896;2022-11-09T00:09:20;9.67;;;5.20;;
45328;SDS011;31063;48.356;10.896;2022-11-09T00:11:46;7.77;;;4.93;;
45328;SDS011;31063;48.356;10.896;2022-11-09T00:14:15;11.47;;;5.30;;
45328;SDS011;31063;48.356;10.896;2022-11-09T00:16:41;11.15;;;5.35;;
45328;SDS011;31063;48.356;10.896;2022-11-09T00:19:07;7.80;;;4.53;;
45328;SDS011;31063;48.356;10.896;2022-11-09T00:21:33;8.17;;;4.63;;
45328;SDS011;31063;48.356;10.896;2022-11-09T00:23:58;7.40;;;4.80;;
45328;SDS011;31063;48.356;10.896;2022-11-09T00:26:24;13.93;;;4.33;;
45328;SDS011;31063;48.356;10.896;2022-11-09T00:28:50;5.55;;;4.30;;
45328;SDS011;31063;48.356;10.896;2022-11-09T00:36:18;9.40;;;4.50;;
45328;SDS011;31063;48.356;10.896;2022-11-09T00:41:14;6.43;;;4.55;;
45328;SDS011;31063;48.356;10.896;2022-11-09T00:43:40;5.55;;;4.38;;
45328;SDS011;31063;48.356;10.896;2022-11-09T00:46:06;7.60;;;4.40;;
45328;SDS011;31063;48.356;10.896;2022-11-09T00:48:32;6.27;;;4.20;;
45328;SDS011;31063;48.356;10.896;2022-11-09T00:50:58;6.45;;;4.53;;
45328;SDS011;31063;48.356;10.896;2022-11-09T00:53:24;6.53;;;4.05;;
45328;SDS011;31063;48.356;10.896;2022-11-09T00:58:19;7.60;;;4.05;;
45328;SDS011;31063;48.356;10.896;2022-11-09T01:00:45;5.03;;;3.50;;
45328;SDS011;31063;48.356;10.896;2022-11-09T01:03:11;7.87;;;3.97;;
45328;SDS011;31063;48.356;10.896;2022-11-09T01:05:36;5.37;;;3.90;;
45328;SDS011;31063;48.356;10.896;2022-11-09T01:08:05;5.93;;;3.42;;
45328;SDS011;31063;48.356;10.896;2022-11-09T01:10:32;5.20;;;3.90;;
45328;SDS011;31063;48.356;10.896;2022-11-09T01:12:58;7.72;;;3.78;;
45328;SDS011;31063;48.356;10.896;2022-11-09T01:15:23;6.95;;;3.65;;
45328;SDS011;31063;48.356;10.896;2022-11-09T01:17:50;6.53;;;4.20;;
45328;SDS011;31063;48.356;10.896;2022-11-09T01:20:15;7.63;;;3.90;;
45328;SDS011;31063;48.356;10.896;2022-11-09T01:22:41;4.65;;;3.40;;
45328;SDS011;31063;48.356;10.896;2022-11-09T01:25:08;6.65;;;3.70;;
45328;SDS011;31063;48.356;10.896;2022-11-09T01:27:34;7.28;;;3.88;;
45328;SDS011;31063;48.356;10.896;2022-11-09T01:30:00;7.95;;;4.00;;
45328;SDS011;31063;48.356;10.896;2022-11-09T01:32:25;7.20;;;3.58;;
45328;SDS011;31063;48.356;10.896;2022-11-09T01:34:51;5.53;;;3.70;;
45328;SDS011;31063;48.356;10.896;2022-11-09T01:37:17;4.83;;;3.53;;
45328;SDS011;31063;48.356;10.896;2022-11-09T01:39:42;3.90;;;3.50;;
45328;SDS011;31063;48.356;10.896;2022-11-09T01:42:08;4.23;;;3.47;;
45328;SDS011;31063;48.356;10.896;2022-11-09T01:44:34;7.50;;;3.10;;
45328;SDS011;31063;48.356;10.896;2022-11-09T01:47:13;6.07;;;3.42;;
45328;SDS011;31063;48.356;10.896;2022-11-09T01:49:51;3.65;;;3.08;;
45328;SDS011;31063;48.356;10.896;2022-11-09T01:52:23;5.72;;;3.78;;
45328;SDS011;31063;48.356;10.896;2022-11-09T01:55:04;5.53;;;3.45;;
45328;SDS011;31063;48.356;10.896;2022-11-09T01:57:42;5.85;;;3.13;;
45328;SDS011;31063;48.356;10.896;2022-11-09T02:00:13;7.28;;;3.22;;
45328;SDS011;31063;48.356;10.896;2022-11-09T02:02:42;6.47;;;3.33;;
45328;SDS011;31063;48.356;10.896;2022-11-09T02:05:11;6.32;;;3.47;;
45328;SDS011;31063;48.356;10.896;2022-11-09T02:07:40;3.97;;;3.20;;
45328;SDS011;31063;48.356;10.896;2022-11-09T02:12:46;8.90;;;3.88;;
45328;SDS011;31063;48.356;10.896;2022-11-09T02:15:12;5.13;;;3.40;;
45328;SDS011;31063;48.356;10.896;2022-11-09T02:17:39;5.28;;;3.40;;
45328;SDS011;31063;48.356;10.896;2022-11-09T02:20:10;5.10;;;3.33;;
45328;SDS011;31063;48.356;10.896;2022-11-09T02:22:38;8.60;;;3.13;;
45328;SDS011;31063;48.356;10.896;2022-11-09T02:25:05;5.15;;;3.28;;
45328;SDS011;31063;48.356;10.896;2022-11-09T02:27:32;4.20;;;3.22;;
45328;SDS011;31063;48.356;10.896;2022-11-09T02:32:26;5.95;;;2.95;;
45328;SDS011;31063;48.356;10.896;2022-11-09T02:34:53;4.32;;;3.05;;
45328;SDS011;31063;48.356;10.896;2022-11-09T02:37:52;7.07;;;3.50;;
45328;SDS011;31063;48.356;10.896;2022-11-09T02:40:25;3.88;;;3.05;;
45328;SDS011;31063;48.356;10.896;2022-11-09T02:42:54;4.80;;;3.00;;
45328;SDS011;31063;48.356;10.896;2022-11-09T02:47:46;8.10;;;3.42;;
45328;SDS011;31063;48.356;10.896;2022-11-09T02:50:11;7.13;;;3.20;;
45328;SDS011;31063;48.356;10.896;2022-11-09T02:52:37;6.40;;;2.70;;
45328;SDS011;31063;48.356;10.896;2022-11-09T02:55:03;4.90;;;2.83;;
45328;SDS011;31063;48.356;10.896;2022-11-09T02:57:29;4.43;;;2.72;;
45328;SDS011;31063;48.356;10.896;2022-11-09T02:59:54;4.00;;;2.70;;
45328;SDS011;31063;48.356;10.896;2022-11-09T03:02:20;4.40;;;2.53;;
45328;SDS011;31063;48.356;10.896;2022-11-09T03:04:46;4.18;;;2.47;;
45328;SDS011;31063;48.356;10.896;2022-11-09T03:07:11;5.13;;;2.43;;
45328;SDS011;31063;48.356;10.896;2022-11-09T03:09:37;10.30;;;3.17;;
45328;SDS011;31063;48.356;10.896;2022-11-09T03:12:03;3.60;;;2.87;;
45328;SDS011;31063;48.356;10.896;2022-11-09T03:14:48;6.28;;;2.80;;
45328;SDS011;31063;48.356;10.896;2022-11-09T03:17:14;5.27;;;2.60;;
45328;SDS011;31063;48.356;10.896;2022-11-09T03:19:40;5.85;;;2.30;;
45328;SDS011;31063;48.356;10.896;2022-11-09T03:22:06;6.47;;;2.80;;
45328;SDS011;31063;48.356;10.896;2022-11-09T03:24:32;6.27;;;2.50;;
45328;SDS011;31063;48.356;10.896;2022-11-09T03:26:57;3.67;;;2.27;;
45328;SDS011;31063;48.356;10.896;2022-11-09T03:29:23;2.73;;;2.53;;
45328;SDS011;31063;48.356;10.896;2022-11-09T03:31:48;4.47;;;2.53;;
45328;SDS011;31063;48.356;10.896;2022-11-09T03:34:14;3.00;;;2.47;;
45328;SDS011;31063;48.356;10.896;2022-11-09T03:36:39;3.63;;;2.50;;
45328;SDS011;31063;48.356;10.896;2022-11-09T03:39:05;4.17;;;2.50;;
45328;SDS011;31063;48.356;10.896;2022-11-09T03:41:30;4.57;;;2.40;;
45328;SDS011;31063;48.356;10.896;2022-11-09T03:43:56;3.23;;;2.37;;
45328;SDS011;31063;48.356;10.896;2022-11-09T03:46:22;3.13;;;2.20;;
45328;SDS011;31063;48.356;10.896;2022-11-09T03:48:47;4.23;;;2.60;;
45328;SDS011;31063;48.356;10.896;2022-11-09T03:51:13;3.80;;;2.13;;
45328;SDS011;31063;48.356;10.896;2022-11-09T03:53:38;3.13;;;2.23;;
45328;SDS011;31063;48.356;10.896;2022-11-09T03:56:04;3.13;;;2.40;;
45328;SDS011;31063;48.356;10.896;2022-11-09T03:58:30;4.50;;;2.60;;
45328;SDS011;31063;48.356;10.896;2022-11-09T04:00:55;3.67;;;2.33;;
45328;SDS011;31063;48.356;10.896;2022-11-09T04:03:21;5.07;;;2.80;;
45328;SDS011;31063;48.356;10.896;2022-11-09T04:05:47;4.00;;;2.23;;
45328;SDS011;31063;48.356;10.896;2022-11-09T04:08:12;3.80;;;2.70;;
45328;SDS011;31063;48.356;10.896;2022-11-09T04:10:38;5.80;;;2.90;;
45328;SDS011;31063;48.356;10.896;2022-11-09T04:13:03;8.07;;;2.80;;
45328;SDS011;31063;48.356;10.896;2022-11-09T04:15:29;2.70;;;2.30;;
45328;SDS011;31063;48.356;10.896;2022-11-09T04:17:59;4.23;;;2.83;;
45328;SDS011;31063;48.356;10.896;2022-11-09T04:20:26;3.35;;;2.40;;
45328;SDS011;31063;48.356;10.896;2022-11-09T04:22:54;4.00;;;2.55;;
45328;SDS011;31063;48.356;10.896;2022-11-09T04:25:24;3.75;;;2.47;;
45328;SDS011;31063;48.356;10.896;2022-11-09T04:27:57;5.95;;;2.58;;
45328;SDS011;31063;48.356;10.896;2022-11-09T04:30:24;4.88;;;2.38;;
45328;SDS011;31063;48.356;10.896;2022-11-09T04:32:52;4.65;;;2.67;;
45328;SDS011;31063;48.356;10.896;2022-11-09T04:35:18;3.72;;;2.42;;
45328;SDS011;31063;48.356;10.896;2022-11-09T04:37:51;4.50;;;2.27;;
45328;SDS011;31063;48.356;10.896;2022-11-09T04:40:17;4.40;;;2.13;;
45328;SDS011;31063;48.356;10.896;2022-11-09T04:42:43;2.80;;;2.10;;
45328;SDS011;31063;48.356;10.896;2022-11-09T04:45:08;3.30;;;2.50;;
45328;SDS011;31063;48.356;10.896;2022-11-09T04:47:34;4.22;;;2.13;;
45328;SDS011;31063;48.356;10.896;2022-11-09T04:50:00;4.93;;;2.00;;
45328;SDS011;31063;48.356;10.896;2022-11-09T04:52:25;3.47;;;2.40;;
45328;SDS011;31063;48.356;10.896;2022-11-09T04:54:51;8.23;;;2.97;;
45328;SDS011;31063;48.356;10.896;2022-11-09T04:57:17;3.17;;;2.40;;
45328;SDS011;31063;48.356;10.896;2022-11-09T04:59:42;4.23;;;2.33;;
45328;SDS011;31063;48.356;10.896;2022-11-09T05:02:08;3.70;;;2.23;;
45328;SDS011;31063;48.356;10.896;2022-11-09T05:04:33;3.10;;;2.13;;
45328;SDS011;31063;48.356;10.896;2022-11-09T05:06:59;4.47;;;2.17;;
45328;SDS011;31063;48.356;10.896;2022-11-09T05:09:24;4.50;;;2.53;;
45328;SDS011;31063;48.356;10.896;2022-11-09T05:11:50;4.90;;;2.70;;
45328;SDS011;31063;48.356;10.896;2022-11-09T05:14:16;5.80;;;2.53;;
45328;SDS011;31063;48.356;10.896;2022-11-09T05:16:41;6.00;;;2.50;;
45328;SDS011;31063;48.356;10.896;2022-11-09T05:19:07;4.63;;;2.50;;
45328;SDS011;31063;48.356;10.896;2022-11-09T05:21:32;3.90;;;2.43;;
45328;SDS011;31063;48.356;10.896;2022-11-09T05:23:58;7.73;;;2.80;;
45328;SDS011;31063;48.356;10.896;2022-11-09T05:26:28;4.77;;;2.90;;
45328;SDS011;31063;48.356;10.896;2022-11-09T05:28:54;7.65;;;2.90;;
45328;SDS011;31063;48.356;10.896;2022-11-09T05:31:19;5.75;;;2.97;;
45328;SDS011;31063;48.356;10.896;2022-11-09T05:33:49;6.85;;;3.50;;
45328;SDS011;31063;48.356;10.896;2022-11-09T05:36:16;5.03;;;3.28;;
45328;SDS011;31063;48.356;10.896;2022-11-09T05:38:42;4.93;;;3.45;;
45328;SDS011;31063;48.356;10.896;2022-11-09T05:41:08;4.53;;;2.85;;
45328;SDS011;31063;48.356;10.896;2022-11-09T05:43:34;5.25;;;2.92;;
45328;SDS011;31063;48.356;10.896;2022-11-09T05:46:00;4.63;;;3.13;;
45328;SDS011;31063;48.356;10.896;2022-11-09T05:48:25;5.53;;;3.30;;
45328;SDS011;31063;48.356;10.896;2022-11-09T05:50:51;6.93;;;3.27;;
45328;SDS011;31063;48.356;10.896;2022-11-09T05:53:17;6.83;;;3.33;;
45328;SDS011;31063;48.356;10.896;2022-11-09T05:55:42;6.10;;;2.50;;
45328;SDS011;31063;48.356;10.896;2022-11-09T05:58:08;4.63;;;2.93;;
45328;SDS011;31063;48.356;10.896;2022-11-09T06:00:34;4.13;;;2.97;;
45328;SDS011;31063;48.356;10.896;2022-11-09T06:03:03;3.38;;;2.72;;
45328;SDS011;31063;48.356;10.896;2022-11-09T06:05:31;7.93;;;3.03;;
45328;SDS011;31063;48.356;10.896;2022-11-09T06:08:02;6.35;;;3.40;;
45328;SDS011;31063;48.356;10.896;2022-11-09T06:10:40;5.38;;;3.10;;
45328;SDS011;31063;48.356;10.896;2022-11-09T06:13:06;7.07;;;3.60;;
45328;SDS011;31063;48.356;10.896;2022-11-09T06:15:32;4.27;;;3.00;;
45328;SDS011;31063;48.356;10.896;2022-11-09T06:17:58;6.33;;;3.30;;
45328;SDS011;31063;48.356;10.896;2022-11-09T06:20:24;5.22;;;3.50;;
45328;SDS011;31063;48.356;10.896;2022-11-09T06:22:54;7.70;;;3.70;;
45328;SDS011;31063;48.356;10.896;2022-11-09T06:25:21;8.45;;;3.85;;
45328;SDS011;31063;48.356;10.896;2022-11-09T06:27:47;5.30;;;3.08;;
45328;SDS011;31063;48.356;10.896;2022-11-09T06:30:13;7.45;;;3.63;;
45328;SDS011;31063;48.356;10.896;2022-11-09T06:32:39;10.70;;;3.38;;
45328;SDS011;31063;48.356;10.896;2022-11-09T06:35:05;5.15;;;3.53;;
45328;SDS011;31063;48.356;10.896;2022-11-09T06:37:31;8.55;;;3.40;;
45328;SDS011;31063;48.356;10.896;2022-11-09T06:39:57;8.35;;;3.38;;
45328;SDS011;31063;48.356;10.896;2022-11-09T06:42:22;5.40;;;3.37;;
45328;SDS011;31063;48.356;10.896;2022-11-09T06:44:48;8.90;;;4.10;;
45328;SDS011;31063;48.356;10.896;2022-11-09T06:47:13;9.23;;;3.40;;
45328;SDS011;31063;48.356;10.896;2022-11-09T06:49:39;7.60;;;3.53;;
45328;SDS011;31063;48.356;10.896;2022-11-09T06:52:04;7.73;;;4.00;;
45328;SDS011;31063;48.356;10.896;2022-11-09T06:54:30;5.17;;;3.60;;
45328;SDS011;31063;48.356;10.896;2022-11-09T06:56:56;8.38;;;4.13;;
45328;SDS011;31063;48.356;10.896;2022-11-09T06:59:22;8.20;;;4.30;;
45328;SDS011;31063;48.356;10.896;2022-11-09T07:01:48;13.93;;;4.80;;
45328;SDS011;31063;48.356;10.896;2022-11-09T07:04:13;7.70;;;4.00;;
45328;SDS011;31063;48.356;10.896;2022-11-09T07:06:39;8.83;;;3.97;;
45328;SDS011;31063;48.356;10.896;2022-11-09T07:09:06;8.40;;;4.13;;
45328;SDS011;31063;48.356;10.896;2022-11-09T07:11:32;9.23;;;4.28;;
45328;SDS011;31063;48.356;10.896;2022-11-09T07:13:57;7.27;;;3.77;;
45328;SDS011;31063;48.356;10.896;2022-11-09T07:16:23;6.73;;;3.93;;
45328;SDS011;31063;48.356;10.896;2022-11-09T07:18:49;6.20;;;3.80;;
45328;SDS011;31063;48.356;10.896;2022-11-09T07:21:15;6.67;;;4.07;;
45328;SDS011;31063;48.356;10.896;2022-11-09T07:23:41;8.80;;;4.32;;
45328;SDS011;31063;48.356;10.896;2022-11-09T07:26:07;9.77;;;4.43;;
45328;SDS011;31063;48.356;10.896;2022-11-09T07:28:33;8.70;;;3.90;;
45328;SDS011;31063;48.356;10.896;2022-11-09T07:30:59;11.15;;;4.05;;
45328;SDS011;31063;48.356;10.896;2022-11-09T07:33:25;7.10;;;4.03;;
45328;SDS011;31063;48.356;10.896;2022-11-09T07:35:54;8.32;;;4.25;;
45328;SDS011;31063;48.356;10.896;2022-11-09T07:38:21;4.88;;;3.55;;
45328;SDS011;31063;48.356;10.896;2022-11-09T07:40:46;6.90;;;3.53;;
45328;SDS011;31063;48.356;10.896;2022-11-09T07:43:13;7.50;;;3.60;;
45328;SDS011;31063;48.356;10.896;2022-11-09T07:45:40;7.07;;;3.88;;
45328;SDS011;31063;48.356;10.896;2022-11-09T07:48:07;11.70;;;3.90;;
45328;SDS011;31063;48.356;10.896;2022-11-09T07:50:34;5.85;;;3.03;;
45328;SDS011;31063;48.356;10.896;2022-11-09T07:53:01;7.70;;;3.42;;
45328;SDS011;31063;48.356;10.896;2022-11-09T07:55:28;13.15;;;3.53;;
45328;SDS011;31063;48.356;10.896;2022-11-09T08:00:20;7.50;;;3.60;;
45328;SDS011;31063;48.356;10.896;2022-11-09T08:02:49;9.90;;;3.87;;
45328;SDS011;31063;48.356;10.896;2022-11-09T08:05:15;8.90;;;4.20;;
45328;SDS011;31063;48.356;10.896;2022-11-09T08:07:41;9.38;;;4.05;;
45328;SDS011;31063;48.356;10.896;2022-11-09T08:10:06;10.80;;;4.37;;
45328;SDS011;31063;48.356;10.896;2022-11-09T08:12:32;11.98;;;4.78;;
45328;SDS011;31063;48.356;10.896;2022-11-09T08:14:58;8.83;;;4.60;;
45328;SDS011;31063;48.356;10.896;2022-11-09T08:17:23;14.53;;;3.97;;
45328;SDS011;31063;48.356;10.896;2022-11-09T08:19:49;14.00;;;4.17;;
45328;SDS011;31063;48.356;10.896;2022-11-09T08:22:15;13.77;;;4.03;;
45328;SDS011;31063;48.356;10.896;2022-11-09T08:24:40;10.53;;;3.63;;
45328;SDS011;31063;48.356;10.896;2022-11-09T08:27:06;17.47;;;4.63;;
45328;SDS011;31063;48.356;10.896;2022-11-09T08:29:31;8.00;;;3.97;;
45328;SDS011;31063;48.356;10.896;2022-11-09T08:31:57;10.93;;;4.30;;
45328;SDS011;31063;48.356;10.896;2022-11-09T08:34:22;6.73;;;3.93;;
45328;SDS011;31063;48.356;10.896;2022-11-09T08:36:48;9.97;;;3.93;;
45328;SDS011;31063;48.356;10.896;2022-11-09T08:39:14;13.50;;;4.23;;
45328;SDS011;31063;48.356;10.896;2022-11-09T08:41:39;7.33;;;3.53;;
45328;SDS011;31063;48.356;10.896;2022-11-09T08:44:05;8.97;;;4.10;;
45328;SDS011;31063;48.356;10.896;2022-11-09T08:46:31;9.40;;;3.83;;
45328;SDS011;31063;48.356;10.896;2022-11-09T08:48:56;8.43;;;3.93;;
45328;SDS011;31063;48.356;10.896;2022-11-09T08:51:22;13.40;;;4.10;;
45328;SDS011;31063;48.356;10.896;2022-11-09T08:53:48;11.13;;;3.27;;
45328;SDS011;31063;48.356;10.896;2022-11-09T08:58:42;7.60;;;3.47;;
45328;SDS011;31063;48.356;10.896;2022-11-09T09:03:34;8.57;;;4.00;;
45328;SDS011;31063;48.356;10.896;2022-11-09T09:06:04;13.57;;;2.97;;
45328;SDS011;31063;48.356;10.896;2022-11-09T09:08:31;9.77;;;3.53;;
45328;SDS011;31063;48.356;10.896;2022-11-09T09:10:59;6.60;;;3.10;;
45328;SDS011;31063;48.356;10.896;2022-11-09T09:13:27;10.23;;;3.13;;
45328;SDS011;31063;48.356;10.896;2022-11-09T09:15:52;5.43;;;3.17;;
45328;SDS011;31063;48.356;10.896;2022-11-09T09:18:18;15.90;;;2.90;;
45328;SDS011;31063;48.356;10.896;2022-11-09T09:20:44;4.50;;;2.53;;
45328;SDS011;31063;48.356;10.896;2022-11-09T09:23:10;13.90;;;3.22;;
45328;SDS011;31063;48.356;10.896;2022-11-09T09:25:38;10.07;;;2.70;;
45328;SDS011;31063;48.356;10.896;2022-11-09T09:28:03;5.53;;;2.57;;
45328;SDS011;31063;48.356;10.896;2022-11-09T09:30:29;7.47;;;2.50;;
45328;SDS011;31063;48.356;10.896;2022-11-09T09:32:58;4.67;;;2.43;;
45328;SDS011;31063;48.356;10.896;2022-11-09T09:35:25;6.22;;;2.72;;
45328;SDS011;31063;48.356;10.896;2022-11-09T09:37:51;5.78;;;3.30;;
45328;SDS011;31063;48.356;10.896;2022-11-09T09:40:22;6.50;;;3.50;;
45328;SDS011;31063;48.356;10.896;2022-11-09T09:42:55;6.00;;;3.20;;
45328;SDS011;31063;48.356;10.896;2022-11-09T09:45:26;7.10;;;3.08;;
45328;SDS011;31063;48.356;10.896;2022-11-09T09:51:44;6.10;;;2.30;;
45328;SDS011;31063;48.356;10.896;2022-11-09T09:54:29;5.72;;;2.17;;
45328;SDS011;31063;48.356;10.896;2022-11-09T09:56:59;6.25;;;2.35;;
45328;SDS011;31063;48.356;10.896;2022-11-09T09:59:30;4.57;;;2.08;;
45328;SDS011;31063;48.356;10.896;2022-11-09T10:04:47;4.85;;;2.30;;
45328;SDS011;31063;48.356;10.896;2022-11-09T10:07:29;2.78;;;2.10;;
45328;SDS011;31063;48.356;10.896;2022-11-09T10:10:20;3.97;;;1.60;;
45328;SDS011;31063;48.356;10.896;2022-11-09T10:26:56;2.25;;;1.70;;
45328;SDS011;31063;48.356;10.896;2022-11-09T10:32:09;4.07;;;1.80;;
45328;SDS011;31063;48.356;10.896;2022-11-09T10:34:52;3.38;;;1.77;;
45328;SDS011;31063;48.356;10.896;2022-11-09T10:37:36;4.38;;;1.70;;
45328;SDS011;31063;48.356;10.896;2022-11-09T10:42:36;3.75;;;1.83;;
45328;SDS011;31063;48.356;10.896;2022-11-09T10:45:11;3.57;;;1.33;;
45328;SDS011;31063;48.356;10.896;2022-11-09T10:47:50;2.60;;;1.63;;
45328;SDS011;31063;48.356;10.896;2022-11-09T10:52:46;3.22;;;1.73;;
45328;SDS011;31063;48.356;10.896;2022-11-09T10:58:00;4.20;;;1.90;;
45328;SDS011;31063;48.356;10.896;2022-11-09T11:00:53;5.95;;;1.75;;
45328;SDS011;31063;48.356;10.896;2022-11-09T11:03:22;3.10;;;1.90;;
45328;SDS011;31063;48.356;10.896;2022-11-09T11:08:23;4.63;;;1.50;;
45328;SDS011;31063;48.356;10.896;2022-11-09T11:11:07;2.95;;;1.88;;
45328;SDS011;31063;48.356;10.896;2022-11-09T11:13:47;3.58;;;1.60;;
45328;SDS011;31063;48.356;10.896;2022-11-09T11:16:33;3.28;;;1.80;;
45328;SDS011;31063;48.356;10.896;2022-11-09T11:18:59;3.28;;;1.80;;
45328;SDS011;31063;48.356;10.896;2022-11-09T11:21:26;2.63;;;2.00;;
45328;SDS011;31063;48.356;10.896;2022-11-09T11:24:02;3.88;;;1.88;;
45328;SDS011;31063;48.356;10.896;2022-11-09T11:26:33;3.35;;;1.75;;
45328;SDS011;31063;48.356;10.896;2022-11-09T11:29:05;3.08;;;1.70;;
45328;SDS011;31063;48.356;10.896;2022-11-09T11:31:38;2.67;;;1.67;;
45328;SDS011;31063;48.356;10.896;2022-11-09T11:34:06;3.40;;;1.77;;
45328;SDS011;31063;48.356;10.896;2022-11-09T11:36:43;4.38;;;1.70;;
45328;SDS011;31063;48.356;10.896;2022-11-09T11:44:52;4.30;;;1.77;;
45328;SDS011;31063;48.356;10.896;2022-11-09T11:47:23;2.25;;;1.75;;
45328;SDS011;31063;48.356;10.896;2022-11-09T11:52:48;3.50;;;1.70;;
45328;SDS011;31063;48.356;10.896;2022-11-09T12:00:21;3.38;;;2.15;;
45328;SDS011;31063;48.356;10.896;2022-11-09T12:06:03;2.67;;;1.73;;
45328;SDS011;31063;48.356;10.896;2022-11-09T12:14:17;2.75;;;1.80;;
45328;SDS011;31063;48.356;10.896;2022-11-09T12:30:36;4.03;;;1.75;;
45328;SDS011;31063;48.356;10.896;2022-11-09T12:33:13;8.15;;;2.03;;
45328;SDS011;31063;48.356;10.896;2022-11-09T12:39:14;2.83;;;1.80;;
45328;SDS011;31063;48.356;10.896;2022-11-09T12:41:24;3.33;;;1.73;;
45328;SDS011;31063;48.356;10.896;2022-11-09T12:43:57;4.60;;;2.25;;
45328;SDS011;31063;48.356;10.896;2022-11-09T12:46:33;3.85;;;1.80;;
45328;SDS011;31063;48.356;10.896;2022-11-09T12:49:03;6.07;;;2.22;;
45328;SDS011;31063;48.356;10.896;2022-11-09T12:51:30;4.03;;;1.92;;
45328;SDS011;31063;48.356;10.896;2022-11-09T12:53:57;2.53;;;1.85;;
45328;SDS011;31063;48.356;10.896;2022-11-09T12:56:30;2.83;;;2.00;;
45328;SDS011;31063;48.356;10.896;2022-11-09T13:01:55;5.70;;;2.25;;
45328;SDS011;31063;48.356;10.896;2022-11-09T13:04:23;6.05;;;2.17;;
45328;SDS011;31063;48.356;10.896;2022-11-09T13:09:27;4.18;;;2.13;;
45328;SDS011;31063;48.356;10.896;2022-11-09T13:11:54;2.65;;;1.90;;
45328;SDS011;31063;48.356;10.896;2022-11-09T13:16:46;7.87;;;2.47;;
45328;SDS011;31063;48.356;10.896;2022-11-09T13:22:00;3.15;;;2.00;;
45328;SDS011;31063;48.356;10.896;2022-11-09T13:26:58;3.83;;;2.35;;
45328;SDS011;31063;48.356;10.896;2022-11-09T13:29:29;3.00;;;2.00;;
45328;SDS011;31063;48.356;10.896;2022-11-09T13:51:01;4.30;;;1.98;;
45328;SDS011;31063;48.356;10.896;2022-11-09T13:58:45;5.00;;;2.00;;
45328;SDS011;31063;48.356;10.896;2022-11-09T14:01:32;3.47;;;2.22;;
45328;SDS011;31063;48.356;10.896;2022-11-09T14:03:59;3.90;;;2.50;;
45328;SDS011;31063;48.356;10.896;2022-11-09T14:06:27;5.60;;;2.10;;
45328;SDS011;31063;48.356;10.896;2022-11-09T14:08:54;4.72;;;2.53;;
45328;SDS011;31063;48.356;10.896;2022-11-09T14:17:01;3.83;;;2.17;;
45328;SDS011;31063;48.356;10.896;2022-11-09T14:19:34;4.65;;;2.35;;
45328;SDS011;31063;48.356;10.896;2022-11-09T14:22:10;3.60;;;2.50;;
45328;SDS011;31063;48.356;10.896;2022-11-09T14:24:40;6.88;;;2.15;;
45328;SDS011;31063;48.356;10.896;2022-11-09T14:27:11;5.13;;;2.40;;
45328;SDS011;31063;48.356;10.896;2022-11-09T14:34:42;4.20;;;2.20;;
45328;SDS011;31063;48.356;10.896;2022-11-09T14:37:09;5.93;;;2.30;;
45328;SDS011;31063;48.356;10.896;2022-11-09T14:39:39;4.30;;;2.28;;
45328;SDS011;31063;48.356;10.896;2022-11-09T14:42:05;6.27;;;2.30;;
45328;SDS011;31063;48.356;10.896;2022-11-09T14:44:32;6.95;;;2.83;;
45328;SDS011;31063;48.356;10.896;2022-11-09T14:47:12;7.32;;;2.60;;
45328;SDS011;31063;48.356;10.896;2022-11-09T14:49:41;6.90;;;2.80;;
45328;SDS011;31063;48.356;10.896;2022-11-09T14:52:08;5.15;;;2.85;;
45328;SDS011;31063;48.356;10.896;2022-11-09T14:54:39;6.68;;;3.13;;
45328;SDS011;31063;48.356;10.896;2022-11-09T14:57:05;4.87;;;3.00;;
45328;SDS011;31063;48.356;10.896;2022-11-09T14:59:33;4.90;;;3.28;;
45328;SDS011;31063;48.356;10.896;2022-11-09T15:04:28;7.55;;;3.50;;
45328;SDS011;31063;48.356;10.896;2022-11-09T15:06:55;7.50;;;3.03;;
45328;SDS011;31063;48.356;10.896;2022-11-09T15:09:34;6.53;;;3.40;;
45328;SDS011;31063;48.356;10.896;2022-11-09T15:12:17;10.25;;;3.63;;
45328;SDS011;31063;48.356;10.896;2022-11-09T15:14:48;5.47;;;3.65;;
45328;SDS011;31063;48.356;10.896;2022-11-09T15:17:24;5.57;;;3.53;;
45328;SDS011;31063;48.356;10.896;2022-11-09T15:19:57;6.75;;;3.28;;
45328;SDS011;31063;48.356;10.896;2022-11-09T15:22:40;7.55;;;4.15;;
45328;SDS011;31063;48.356;10.896;2022-11-09T15:25:23;6.60;;;3.13;;
45328;SDS011;31063;48.356;10.896;2022-11-09T15:30:30;5.22;;;3.20;;
45328;SDS011;31063;48.356;10.896;2022-11-09T15:35:47;5.25;;;3.30;;
45328;SDS011;31063;48.356;10.896;2022-11-09T15:38:27;5.32;;;3.63;;
45328;SDS011;31063;48.356;10.896;2022-11-09T15:41:01;5.25;;;3.38;;
45328;SDS011;31063;48.356;10.896;2022-11-09T15:43:29;4.32;;;3.45;;
45328;SDS011;31063;48.356;10.896;2022-11-09T15:45:55;4.53;;;3.43;;
45328;SDS011;31063;48.356;10.896;2022-11-09T15:48:23;5.95;;;3.35;;
45328;SDS011;31063;48.356;10.896;2022-11-09T15:50:49;5.97;;;3.30;;
45328;SDS011;31063;48.356;10.896;2022-11-09T15:53:16;5.13;;;3.50;;
45328;SDS011;31063;48.356;10.896;2022-11-09T15:55:41;4.97;;;3.47;;
45328;SDS011;31063;48.356;10.896;2022-11-09T15:58:10;7.05;;;3.70;;
45328;SDS011;31063;48.356;10.896;2022-11-09T16:00:39;6.60;;;3.97;;
45328;SDS011;31063;48.356;10.896;2022-11-09T16:03:04;6.70;;;4.07;;
45328;SDS011;31063;48.356;10.896;2022-11-09T16:05:30;5.20;;;4.07;;
45328;SDS011;31063;48.356;10.896;2022-11-09T16:07:57;9.15;;;3.63;;
45328;SDS011;31063;48.356;10.896;2022-11-09T16:10:22;7.05;;;3.80;;
45328;SDS011;31063;48.356;10.896;2022-11-09T16:12:51;4.65;;;3.72;;
45328;SDS011;31063;48.356;10.896;2022-11-09T16:15:17;6.57;;;3.22;;
45328;SDS011;31063;48.356;10.896;2022-11-09T16:17:43;6.45;;;3.67;;
45328;SDS011;31063;48.356;10.896;2022-11-09T16:20:09;5.70;;;3.78;;
45328;SDS011;31063;48.356;10.896;2022-11-09T16:22:35;4.18;;;3.50;;
45328;SDS011;31063;48.356;10.896;2022-11-09T16:25:01;6.77;;;3.50;;
45328;SDS011;31063;48.356;10.896;2022-11-09T16:27:27;5.45;;;3.40;;
45328;SDS011;31063;48.356;10.896;2022-11-09T16:29:53;6.20;;;3.80;;
45328;SDS011;31063;48.356;10.896;2022-11-09T16:32:19;4.07;;;3.42;;
45328;SDS011;31063;48.356;10.896;2022-11-09T16:34:45;6.33;;;3.40;;
45328;SDS011;31063;48.356;10.896;2022-11-09T16:37:10;6.77;;;3.90;;
45328;SDS011;31063;48.356;10.896;2022-11-09T16:39:36;5.20;;;3.88;;
45328;SDS011;31063;48.356;10.896;2022-11-09T16:42:06;5.40;;;3.83;;
45328;SDS011;31063;48.356;10.896;2022-11-09T16:44:34;6.03;;;3.83;;
45328;SDS011;31063;48.356;10.896;2022-11-09T16:47:02;5.07;;;3.38;;
45328;SDS011;31063;48.356;10.896;2022-11-09T16:49:30;4.40;;;3.05;;
45328;SDS011;31063;48.356;10.896;2022-11-09T16:51:56;6.13;;;3.40;;
45328;SDS011;31063;48.356;10.896;2022-11-09T16:54:22;4.90;;;4.03;;
45328;SDS011;31063;48.356;10.896;2022-11-09T16:56:47;6.57;;;4.03;;
45328;SDS011;31063;48.356;10.896;2022-11-09T16:59:13;6.67;;;4.47;;
45328;SDS011;31063;48.356;10.896;2022-11-09T17:01:39;7.37;;;4.37;;
45328;SDS011;31063;48.356;10.896;2022-11-09T17:04:04;6.23;;;4.50;;
45328;SDS011;31063;48.356;10.896;2022-11-09T17:06:33;5.27;;;4.00;;
45328;SDS011;31063;48.356;10.896;2022-11-09T17:09:00;7.30;;;4.53;;
45328;SDS011;31063;48.356;10.896;2022-11-09T17:11:26;6.32;;;4.13;;
45328;SDS011;31063;48.356;10.896;2022-11-09T17:13:55;4.33;;;3.50;;